KBDN

Bend Municipal Airport

Bend, Oregon, USA
METAR KBDN 222135Z AUTO 36010KT 10SM CLR 14/M12 A3021 RMK AO2
Observed Flight Rules
Apr-22 @ 21:35 UTC (19 minutes ago) Visual Flight Rules
Wind Visibility Clouds
360° at 10 knots 10 miles
  • Clear skies
Temperatures Readings
Current 14°C / 57°F
Dewpoint -12°C / 10°F
Humidity 15%
Altimeter 30.21" Hg
Pressure 1023 hPa
Elevation 1055
METAR KBDN 222135Z AUTO 36010KT 10SM CLR 14/M12 A3021 RMK AO2
Observed Flight Rules
Apr-22 @ 21:35 UTC
(19 minutes ago)
VFR
Wind Visibility
360° at 10 knots 10 miles
Clouds
  • Clear skies
Temperature Dewpoint
14°C / 57°F -12°C / 10°F
Humidity Altimeter Pressure
15% 30.21" Hg 1023 hPa